createdAt,value
2022-12-14T08:06:37.206Z,9.52
2022-12-14T08:12:11.309Z,9.15
2022-12-14T08:14:42.259Z,9.25
2022-12-14T08:20:15.617Z,9.80
2022-12-14T08:22:49.209Z,9.25
2022-12-14T08:25:20.145Z,8.75
2022-12-14T08:27:50.896Z,10.10
2022-12-14T08:30:21.666Z,9.55
2022-12-14T08:32:52.507Z,8.98
2022-12-14T08:35:24.229Z,9.10
2022-12-14T08:37:57.886Z,9.48
2022-12-14T08:40:28.701Z,9.52
2022-12-14T08:42:59.602Z,10.30
2022-12-14T08:45:30.502Z,10.38
2022-12-14T08:48:01.749Z,10.00
2022-12-14T08:50:32.821Z,10.23
2022-12-14T08:53:06.571Z,9.68
2022-12-14T08:55:39.588Z,9.65
2022-12-14T08:58:10.359Z,10.80
2022-12-14T09:00:41.353Z,10.10
2022-12-14T09:06:27.962Z,11.57
2022-12-14T09:09:01.391Z,13.60
2022-12-14T09:11:32.765Z,11.35
2022-12-14T09:14:05.000Z,11.80
2022-12-14T09:16:38.379Z,11.18
2022-12-14T09:19:09.152Z,10.50
2022-12-14T09:21:40.037Z,10.32
2022-12-14T09:24:14.021Z,10.30
2022-12-14T09:26:44.727Z,10.45
2022-12-14T09:29:18.606Z,10.77
2022-12-14T09:31:49.870Z,9.98
2022-12-14T09:34:21.955Z,10.80
2022-12-14T09:36:53.183Z,10.02
2022-12-14T09:39:26.928Z,11.80
2022-12-14T09:42:11.959Z,10.77
2022-12-14T09:44:52.324Z,11.02
2022-12-14T09:47:28.652Z,10.35
2022-12-14T09:50:04.291Z,10.88
2022-12-14T09:52:41.633Z,11.23
2022-12-14T09:55:23.021Z,11.20
2022-12-14T09:57:59.771Z,11.35
2022-12-14T10:00:38.177Z,10.85
2022-12-14T10:03:35.030Z,12.32
2022-12-14T10:06:28.210Z,11.70
2022-12-14T10:09:07.386Z,10.45
2022-12-14T10:11:45.733Z,11.55
2022-12-14T10:14:22.169Z,11.98
2022-12-14T10:17:01.081Z,12.63
2022-12-14T10:19:40.600Z,12.13
2022-12-14T10:22:17.928Z,11.93
2022-12-14T10:24:54.356Z,12.18
2022-12-14T10:27:38.156Z,12.38
2022-12-14T10:30:24.200Z,11.55
2022-12-14T10:33:03.328Z,12.93
2022-12-14T10:35:39.567Z,12.63
2022-12-14T10:38:28.330Z,12.70
2022-12-14T10:41:10.653Z,11.73
2022-12-14T10:43:50.784Z,12.35
2022-12-14T10:46:28.501Z,11.35
2022-12-14T10:49:05.125Z,11.63
2022-12-14T10:51:40.514Z,12.73
2022-12-14T10:54:20.043Z,11.07
2022-12-14T10:56:52.445Z,11.82
2022-12-14T10:59:40.626Z,11.70
2022-12-14T11:02:18.630Z,11.60
2022-12-14T11:04:54.488Z,11.93
2022-12-14T11:07:27.534Z,12.68
2022-12-14T11:10:22.254Z,10.68
2022-12-14T11:13:02.118Z,10.45
2022-12-14T11:15:38.116Z,12.40
2022-12-14T11:18:26.957Z,12.13
2022-12-14T11:23:58.678Z,12.50
2022-12-14T11:26:35.271Z,12.95
2022-12-14T11:29:09.277Z,12.40
2022-12-14T11:31:47.479Z,12.60
2022-12-14T11:34:34.551Z,12.57
2022-12-14T11:37:16.535Z,12.43
2022-12-14T11:39:53.327Z,12.65
2022-12-14T11:42:27.282Z,11.45
2022-12-14T11:45:18.461Z,10.65
2022-12-14T11:48:28.047Z,9.95
2022-12-14T11:51:12.885Z,10.63
2022-12-14T11:53:44.290Z,12.20
2022-12-14T11:56:19.052Z,12.13
2022-12-14T11:58:54.777Z,13.15
2022-12-14T12:01:29.478Z,11.52
2022-12-14T12:04:04.503Z,13.02
2022-12-14T12:06:35.467Z,13.35
2022-12-14T12:09:20.632Z,12.60
2022-12-14T12:11:51.433Z,12.85
2022-12-14T12:14:32.547Z,14.43
2022-12-14T12:17:05.530Z,13.40
2022-12-14T12:19:42.951Z,12.63
2022-12-14T12:22:19.064Z,13.07
2022-12-14T12:25:24.187Z,12.52
2022-12-14T12:27:53.608Z,12.70
2022-12-14T12:30:30.619Z,12.40
2022-12-14T12:33:12.324Z,13.50
2022-12-14T12:35:52.081Z,13.25
2022-12-14T12:38:33.789Z,11.98
2022-12-14T12:41:15.985Z,14.05
2022-12-14T12:43:53.682Z,12.23
2022-12-14T12:46:30.011Z,12.90
2022-12-14T12:52:11.725Z,12.82
2022-12-14T12:54:58.409Z,11.70
2022-12-14T12:57:33.927Z,12.80
2022-12-14T13:00:06.381Z,11.15
2022-12-14T13:02:41.202Z,10.25
2022-12-14T13:05:45.887Z,12.45
2022-12-14T13:08:22.172Z,12.95
2022-12-14T13:13:53.229Z,11.70
2022-12-14T13:16:28.569Z,10.20
2022-12-14T13:19:40.450Z,9.30
2022-12-14T13:22:05.230Z,9.05
2022-12-14T13:28:08.181Z,10.25
2022-12-14T13:31:01.691Z,10.70
2022-12-14T13:37:14.599Z,10.30
2022-12-14T13:40:01.976Z,9.65
2022-12-14T13:42:40.611Z,9.02
2022-12-14T13:45:21.331Z,9.60
2022-12-14T13:47:55.436Z,10.25
2022-12-14T13:50:37.182Z,9.85
2022-12-14T13:53:17.360Z,16.02
2022-12-14T13:55:52.679Z,11.00
2022-12-14T13:58:28.888Z,12.35
2022-12-14T14:01:16.916Z,14.32
2022-12-14T14:03:57.694Z,14.27
2022-12-14T14:06:41.264Z,13.15
2022-12-14T14:09:42.191Z,15.40
2022-12-14T14:12:36.143Z,13.85
2022-12-14T14:15:38.303Z,13.45
2022-12-14T14:18:18.307Z,13.20
2022-12-14T14:20:57.008Z,12.95
2022-12-14T14:23:43.221Z,12.77
2022-12-14T14:26:25.112Z,12.43
2022-12-14T14:29:23.233Z,11.45
2022-12-14T14:31:57.775Z,10.80
2022-12-14T14:34:51.123Z,10.50
2022-12-14T14:37:31.111Z,12.30
2022-12-14T14:40:50.981Z,15.25
2022-12-14T14:43:30.328Z,18.13
2022-12-14T14:46:04.916Z,11.65
2022-12-14T14:48:38.391Z,13.35
2022-12-14T14:51:22.997Z,12.43
2022-12-14T14:57:38.511Z,13.40
2022-12-14T15:00:13.914Z,14.25
2022-12-14T15:02:45.751Z,13.35
2022-12-14T15:08:09.758Z,14.43
2022-12-14T15:10:47.077Z,14.93
2022-12-14T15:13:23.488Z,14.20
2022-12-14T15:15:58.332Z,15.45
2022-12-14T15:18:32.193Z,15.13
2022-12-14T15:21:06.898Z,15.25
2022-12-14T15:23:39.853Z,15.20
2022-12-14T15:26:18.144Z,16.35
2022-12-14T15:28:56.978Z,15.90
2022-12-14T15:31:38.335Z,14.90
2022-12-14T15:34:13.224Z,17.10
2022-12-14T15:36:47.680Z,16.27
2022-12-14T15:39:44.436Z,17.52
2022-12-14T15:42:21.856Z,17.17
2022-12-14T15:44:56.602Z,16.35
2022-12-14T15:47:30.196Z,17.05
2022-12-14T15:56:18.183Z,17.45
2022-12-14T15:58:53.189Z,17.50
2022-12-14T16:01:26.835Z,18.30
2022-12-14T16:04:02.190Z,17.45
2022-12-14T16:06:39.019Z,18.80
2022-12-14T16:09:14.236Z,19.60
2022-12-14T16:11:49.433Z,19.75
2022-12-14T16:14:28.240Z,20.80
2022-12-14T16:16:59.746Z,21.73
2022-12-14T16:19:57.413Z,20.08
2022-12-14T16:22:28.351Z,22.02
2022-12-14T16:25:19.499Z,21.25
2022-12-14T16:27:52.836Z,23.20
2022-12-14T16:30:37.282Z,23.02
2022-12-14T16:33:17.075Z,27.25
2022-12-14T16:42:12.146Z,32.40
2022-12-14T16:44:53.999Z,33.17
2022-12-14T16:48:04.478Z,35.10
2022-12-14T16:53:29.659Z,37.88
2022-12-14T16:56:07.183Z,37.95
2022-12-14T16:58:39.187Z,35.95
2022-12-14T17:01:12.929Z,36.63
2022-12-14T17:03:54.728Z,34.45
2022-12-14T17:06:31.478Z,33.13
2022-12-14T17:09:03.683Z,32.60
2022-12-14T19:16:30.492Z,22.17
2022-12-14T19:19:03.118Z,22.73
2022-12-14T19:54:07.740Z,21.30
2022-12-14T19:56:38.892Z,19.00
2022-12-14T19:59:09.815Z,19.77
2022-12-14T20:01:47.671Z,20.40
2022-12-14T20:04:21.392Z,20.35
2022-12-14T20:06:52.243Z,21.30
2022-12-14T20:09:26.732Z,21.40
2022-12-14T20:11:59.893Z,21.05
2022-12-14T20:17:13.516Z,22.17
2022-12-14T20:19:47.429Z,22.02
2022-12-14T20:22:18.306Z,21.25
2022-12-14T20:24:51.795Z,19.77
2022-12-14T20:27:22.610Z,17.73
2022-12-14T20:29:54.493Z,19.30
2022-12-14T20:32:25.314Z,18.00
2022-12-14T20:34:56.086Z,18.58
2022-12-14T20:37:28.080Z,18.02
2022-12-14T20:40:03.632Z,18.92
2022-12-14T20:42:34.483Z,19.15
2022-12-14T20:45:08.754Z,20.45
2022-12-14T20:47:39.615Z,19.92
2022-12-14T20:50:17.814Z,20.10
2022-12-14T20:52:49.138Z,19.85
2022-12-14T20:55:25.062Z,19.75
2022-12-14T20:57:55.861Z,19.85
2022-12-14T21:00:26.979Z,18.13
2022-12-14T21:02:58.002Z,20.05
2022-12-14T21:05:29.375Z,19.40
2022-12-14T21:08:00.883Z,17.38
2022-12-14T21:10:39.840Z,18.23
2022-12-14T21:13:10.622Z,18.70
2022-12-14T21:15:42.580Z,18.23
2022-12-14T21:18:14.908Z,19.10
2022-12-14T21:20:49.213Z,16.50
2022-12-14T21:23:20.181Z,17.80
2022-12-14T21:25:53.654Z,17.55
2022-12-14T21:28:30.410Z,18.48
2022-12-14T21:31:05.425Z,18.92
